Time;durP1;ratioP1;P1;durP2;ratioP2;P2;SDS_P1;SDS_P2;PMS_P1;PMS_P2;Temp;Humidity;BMP_temperature;BMP_pressure;BME280_temperature;BME280_humidity;BME280_pressure;Samples;Min_cycle;Max_cycle;Signal;HPM_P1;HPM_P2
2021/09/19 00:00:32;;;;;;;13.90;4.70;;;;;;;10.67;87.33;100267.04;112963;1198;25100;-62
2021/09/19 00:03:14;;;;;;;15.40;3.80;;;;;;;10.68;87.42;100265.73;113008;1198;25334;-63
2021/09/19 00:05:45;;;;;;;12.40;4.00;;;;;;;10.67;87.34;100264.50;112911;1198;23137;-63
2021/09/19 00:08:16;;;;;;;15.90;3.40;;;;;;;10.68;87.29;100266.13;113102;1199;24061;-63
2021/09/19 00:10:50;;;;;;;9.70;2.50;;;;;;;10.67;86.92;100265.21;113233;1199;25153;-64
2021/09/19 00:13:21;;;;;;;10.50;3.00;;;;;;;10.65;86.75;100265.34;113098;1194;25306;-63
2021/09/19 00:15:53;;;;;;;9.90;3.30;;;;;;;10.63;86.86;100271.10;113270;1194;22455;-63
2021/09/19 00:18:27;;;;;;;10.90;3.20;;;;;;;10.61;86.47;100268.59;113130;1198;22439;-62
2021/09/19 00:20:59;;;;;;;11.20;3.00;;;;;;;10.58;86.62;100273.27;113042;1199;25479;-62
2021/09/19 00:23:31;;;;;;;11.00;2.40;;;;;;;10.56;86.67;100274.08;113180;1198;22440;-63
2021/09/19 00:26:02;;;;;;;10.70;2.80;;;;;;;10.53;86.63;100274.39;112977;1199;24176;-62
2021/09/19 00:28:34;;;;;;;11.40;2.70;;;;;;;10.51;86.48;100272.60;113018;1199;24159;-62
2021/09/19 00:31:05;;;;;;;13.10;3.20;;;;;;;10.48;86.60;100274.34;113106;1198;25927;-63
2021/09/19 00:33:36;;;;;;;9.70;3.10;;;;;;;10.45;86.51;100274.64;113017;1193;24029;-63
2021/09/19 00:36:07;;;;;;;11.50;2.60;;;;;;;10.42;86.36;100275.27;113003;1198;25649;-63
2021/09/19 00:38:38;;;;;;;8.60;2.20;;;;;;;10.40;86.34;100272.60;113052;1177;24130;-64
2021/09/19 00:41:09;;;;;;;15.70;3.40;;;;;;;10.38;86.32;100273.36;113065;1199;24083;-63
2021/09/19 00:43:40;;;;;;;13.30;3.10;;;;;;;10.36;86.48;100274.03;113146;1199;25035;-62
2021/09/19 00:46:11;;;;;;;10.20;3.00;;;;;;;10.34;86.26;100276.20;113064;1198;25024;-63
2021/09/19 00:48:44;;;;;;;11.30;3.00;;;;;;;10.33;86.30;100271.88;113103;1198;25038;-63
2021/09/19 00:51:16;;;;;;;13.30;3.10;;;;;;;10.30;86.29;100275.65;113133;1193;24065;-63
2021/09/19 00:53:51;;;;;;;10.60;3.10;;;;;;;10.29;86.55;100267.91;113431;1198;22457;-63
2021/09/19 00:56:27;;;;;;;10.80;2.80;;;;;;;10.28;86.40;100261.89;113370;1198;25397;-64
2021/09/19 00:59:00;;;;;;;8.90;2.60;;;;;;;10.28;86.29;100264.23;113119;1199;25342;-63
2021/09/19 01:01:33;;;;;;;10.30;2.90;;;;;;;10.28;86.37;100261.33;113216;1199;25076;-63
2021/09/19 01:04:05;;;;;;;10.70;3.10;;;;;;;10.29;86.43;100264.15;113083;1193;25038;-63
2021/09/19 01:06:37;;;;;;;11.30;3.10;;;;;;;10.31;86.34;100267.59;113273;1198;25206;-63
2021/09/19 01:09:08;;;;;;;10.40;3.00;;;;;;;10.32;86.37;100265.69;113332;1193;25117;-63
2021/09/19 01:11:39;;;;;;;12.30;2.80;;;;;;;10.34;86.19;100260.73;113063;1193;22483;-64
2021/09/19 01:14:13;;;;;;;11.00;2.80;;;;;;;10.35;86.20;100262.75;113042;1198;22448;-64
2021/09/19 01:16:44;;;;;;;11.10;2.80;;;;;;;10.34;86.09;100265.09;113296;1193;24104;-63
2021/09/19 01:19:21;;;;;;;11.60;3.20;;;;;;;10.34;85.82;100259.50;113185;1198;24184;-63
2021/09/19 01:21:53;;;;;;;12.80;2.90;;;;;;;10.34;86.08;100257.46;113013;1199;25903;-63
2021/09/19 01:24:26;;;;;;;15.80;3.30;;;;;;;10.34;86.07;100257.20;113249;1192;22485;-63
2021/09/19 01:26:57;;;;;;;10.30;2.50;;;;;;;10.35;86.17;100256.27;113159;1198;25131;-63
2021/09/19 01:29:28;;;;;;;12.80;3.20;;;;;;;10.36;85.99;100258.46;113124;1193;22428;-63
2021/09/19 01:31:59;;;;;;;10.80;3.00;;;;;;;10.37;86.02;100260.96;112993;1199;22441;-63
2021/09/19 01:34:38;;;;;;;10.30;2.60;;;;;;;10.40;85.79;100263.61;113272;1192;25106;-63
2021/09/19 01:37:09;;;;;;;12.50;2.90;;;;;;;10.39;85.66;100265.48;113128;1198;22430;-63
2021/09/19 01:39:39;;;;;;;12.90;2.90;;;;;;;10.37;85.41;100260.86;113045;1198;22424;-63
2021/09/19 01:42:10;;;;;;;12.70;2.60;;;;;;;10.33;85.40;100263.23;112920;1198;26368;-64
2021/09/19 01:44:42;;;;;;;11.10;2.80;;;;;;;10.30;85.28;100262.54;113187;1193;22435;-63
2021/09/19 01:47:14;;;;;;;10.10;2.40;;;;;;;10.25;85.38;100261.02;113520;1198;22482;-63
2021/09/19 01:49:48;;;;;;;15.60;3.50;;;;;;;10.22;85.44;100265.63;113519;1199;22450;-63
2021/09/19 01:52:22;;;;;;;13.80;3.40;;;;;;;10.20;85.39;100267.34;113130;1198;22449;-63
2021/09/19 01:54:52;;;;;;;10.30;2.60;;;;;;;10.17;85.49;100269.01;113004;1198;24156;-63
2021/09/19 01:57:23;;;;;;;10.30;2.50;;;;;;;10.14;85.56;100266.27;113069;1198;25089;-63
2021/09/19 01:59:56;;;;;;;10.40;2.80;;;;;;;10.12;85.41;100261.36;113100;1193;22432;-63
2021/09/19 02:02:28;;;;;;;10.50;2.40;;;;;;;10.13;85.42;100259.84;113010;1193;27563;-63
2021/09/19 02:04:59;;;;;;;10.20;2.10;;;;;;;10.12;85.35;100257.14;113013;1199;24071;-63
2021/09/19 02:07:30;;;;;;;11.20;3.00;;;;;;;10.12;85.40;100249.95;113355;1194;22436;-63
2021/09/19 02:10:01;;;;;;;11.40;2.60;;;;;;;10.13;85.41;100253.73;113146;1197;22556;-63
2021/09/19 02:12:34;;;;;;;11.00;2.30;;;;;;;10.15;85.50;100252.30;112969;1193;22709;-64
2021/09/19 02:15:06;;;;;;;9.40;2.50;;;;;;;10.16;85.10;100249.22;113107;1198;22450;-63
2021/09/19 02:17:37;;;;;;;12.30;2.80;;;;;;;10.15;84.82;100251.09;113054;1198;25066;-63
2021/09/19 02:20:13;;;;;;;13.30;3.00;;;;;;;10.14;84.81;100252.98;113053;1193;24153;-62
2021/09/19 02:22:44;;;;;;;11.10;2.60;;;;;;;10.14;84.87;100247.61;113228;1199;22437;-63
2021/09/19 02:25:16;;;;;;;9.80;2.90;;;;;;;10.14;84.80;100247.71;113181;1197;22431;-63
2021/09/19 02:27:46;;;;;;;10.40;2.70;;;;;;;10.11;84.62;100244.99;113193;1192;24064;-64
2021/09/19 02:30:18;;;;;;;7.80;2.20;;;;;;;10.07;84.80;100237.84;113118;1198;22429;-64
2021/09/19 02:32:49;;;;;;;11.30;2.30;;;;;;;10.05;84.67;100240.58;113116;1198;25123;-63
2021/09/19 02:35:20;;;;;;;9.00;2.40;;;;;;;10.03;84.54;100248.19;113117;1198;25434;-64
2021/09/19 02:37:51;;;;;;;12.20;2.50;;;;;;;9.98;84.35;100246.68;113140;1198;22433;-64
2021/09/19 02:40:26;;;;;;;13.20;3.10;;;;;;;9.93;84.48;100248.30;113074;1198;22452;-64
2021/09/19 02:42:58;;;;;;;11.30;3.00;;;;;;;9.92;84.67;100246.84;113022;1198;22430;-64
2021/09/19 02:45:28;;;;;;;12.30;2.50;;;;;;;9.91;84.52;100252.60;113181;1198;22446;-63
2021/09/19 02:47:59;;;;;;;10.30;2.00;;;;;;;9.87;84.40;100250.80;113165;1192;24984;-64
2021/09/19 02:50:30;;;;;;;12.40;2.90;;;;;;;9.83;84.26;100251.64;112965;1198;22897;-64
2021/09/19 02:53:01;;;;;;;12.80;3.30;;;;;;;9.78;84.32;100250.11;113038;1198;22440;-63
2021/09/19 02:55:33;;;;;;;10.00;2.10;;;;;;;9.75;84.42;100244.87;113111;1190;24073;-63
2021/09/19 02:58:04;;;;;;;13.90;3.10;;;;;;;9.68;84.28;100246.67;113093;1190;26263;-63
2021/09/19 03:00:34;;;;;;;12.20;3.00;;;;;;;9.62;84.30;100242.80;113019;1198;22420;-64
2021/09/19 03:03:05;;;;;;;10.00;2.40;;;;;;;9.57;84.14;100245.61;113097;1190;22415;-63
2021/09/19 03:05:36;;;;;;;11.40;2.50;;;;;;;9.52;84.40;100243.88;113171;1192;25158;-63
2021/09/19 03:08:08;;;;;;;18.90;4.00;;;;;;;9.49;84.34;100248.36;113223;1193;23573;-64
2021/09/19 03:10:39;;;;;;;11.70;2.40;;;;;;;9.47;84.45;100250.85;113071;1198;23713;-64
2021/09/19 03:13:11;;;;;;;14.60;3.00;;;;;;;9.45;84.58;100255.05;113025;1191;22475;-64
2021/09/19 03:15:42;;;;;;;9.60;2.80;;;;;;;9.41;84.36;100252.65;112944;1194;22408;-64
2021/09/19 03:18:13;;;;;;;10.90;2.60;;;;;;;9.40;84.70;100251.70;112969;1190;22894;-64
2021/09/19 03:20:44;;;;;;;11.70;3.10;;;;;;;9.43;84.79;100251.23;112992;1198;24041;-63
2021/09/19 03:23:15;;;;;;;12.20;3.40;;;;;;;9.43;84.83;100249.86;113111;1190;24017;-63
2021/09/19 03:25:46;;;;;;;11.30;3.00;;;;;;;9.42;84.88;100247.20;113085;1198;22415;-64
2021/09/19 03:28:17;;;;;;;13.50;2.90;;;;;;;9.43;84.97;100248.04;113012;1190;22452;-63
2021/09/19 03:30:49;;;;;;;11.20;3.10;;;;;;;9.46;85.21;100253.96;113048;1193;24218;-64
2021/09/19 03:33:19;;;;;;;10.40;2.70;;;;;;;9.50;85.15;100252.70;113143;1198;25296;-62
2021/09/19 03:35:50;;;;;;;9.10;2.60;;;;;;;9.55;85.29;100256.83;113017;1198;25170;-64
2021/09/19 03:38:21;;;;;;;13.20;3.80;;;;;;;9.57;85.22;100258.38;113036;1193;22426;-63
2021/09/19 03:40:53;;;;;;;10.20;2.40;;;;;;;9.56;85.01;100259.48;113321;1198;24984;-64
2021/09/19 03:43:25;;;;;;;9.10;2.50;;;;;;;9.57;85.10;100263.85;112982;1192;25097;-63
2021/09/19 03:45:56;;;;;;;12.00;3.20;;;;;;;9.58;85.03;100262.73;112986;1198;24078;-63
2021/09/19 03:48:27;;;;;;;9.80;2.50;;;;;;;9.60;85.27;100263.84;112973;1192;24078;-63
2021/09/19 03:51:01;;;;;;;10.20;2.40;;;;;;;9.63;85.16;100260.91;113024;1198;25066;-64
2021/09/19 03:53:33;;;;;;;12.30;2.60;;;;;;;9.64;85.04;100260.32;113072;1198;22473;-65
2021/09/19 03:56:07;;;;;;;8.60;2.30;;;;;;;9.66;85.14;100264.89;113010;1184;24018;-64
2021/09/19 03:58:39;;;;;;;10.70;2.50;;;;;;;9.67;85.11;100270.17;113156;1198;23202;-65
2021/09/19 04:01:12;;;;;;;8.90;2.60;;;;;;;9.70;85.14;100272.22;113059;1198;24304;-63
2021/09/19 04:03:43;;;;;;;13.20;3.40;;;;;;;9.71;85.07;100268.89;113156;1198;22426;-63
2021/09/19 04:06:14;;;;;;;9.50;2.70;;;;;;;9.72;85.12;100270.05;113124;1193;22430;-63
2021/09/19 04:08:46;;;;;;;13.10;3.10;;;;;;;9.71;85.01;100274.33;113168;1198;22433;-64
2021/09/19 04:11:17;;;;;;;8.70;2.00;;;;;;;9.70;84.80;100273.89;113222;1190;25343;-64
2021/09/19 04:13:47;;;;;;;9.20;2.70;;;;;;;9.68;84.96;100271.98;113308;1198;25079;-64
2021/09/19 04:16:18;;;;;;;7.50;2.30;;;;;;;9.67;84.95;100278.95;113149;1198;22424;-65
2021/09/19 04:18:50;;;;;;;10.50;2.20;;;;;;;9.66;84.81;100283.53;113078;1198;22480;-65
2021/09/19 04:21:22;;;;;;;9.10;2.30;;;;;;;9.65;84.86;100283.27;113008;1198;22421;-64
2021/09/19 04:23:52;;;;;;;11.00;2.40;;;;;;;9.64;84.86;100284.51;113109;1198;22472;-64
2021/09/19 04:26:24;;;;;;;12.60;3.00;;;;;;;9.63;84.98;100290.00;113010;1193;25025;-64
2021/09/19 04:28:54;;;;;;;11.90;2.50;;;;;;;9.61;85.02;100289.95;113036;1198;22441;-64
2021/09/19 04:31:25;;;;;;;8.60;2.40;;;;;;;9.58;85.19;100292.06;113001;1198;25483;-64
2021/09/19 04:33:56;;;;;;;10.30;2.90;;;;;;;9.56;85.12;100293.27;113161;1198;24040;-65
2021/09/19 04:36:27;;;;;;;9.50;2.90;;;;;;;9.54;85.18;100291.05;113072;1198;22448;-63
2021/09/19 04:38:58;;;;;;;10.90;2.80;;;;;;;9.52;85.26;100293.38;112964;1198;22440;-64
2021/09/19 04:41:29;;;;;;;12.00;3.60;;;;;;;9.51;85.45;100295.03;112993;1198;24067;-63
2021/09/19 04:44:00;;;;;;;10.70;2.30;;;;;;;9.51;85.48;100297.32;113020;1198;25346;-63
2021/09/19 04:46:31;;;;;;;13.80;2.70;;;;;;;9.52;85.45;100302.23;113035;1198;22426;-63
2021/09/19 04:49:03;;;;;;;11.40;2.90;;;;;;;9.52;85.40;100303.16;113129;1190;22448;-64
2021/09/19 04:51:34;;;;;;;12.90;2.70;;;;;;;9.50;85.43;100305.10;113029;1191;22413;-64
2021/09/19 04:54:05;;;;;;;8.90;2.80;;;;;;;9.48;85.37;100303.59;112996;1198;25028;-64
2021/09/19 04:56:36;;;;;;;10.10;2.70;;;;;;;9.48;85.37;100306.00;113017;1198;26301;-63
2021/09/19 04:59:08;;;;;;;7.90;2.40;;;;;;;9.47;85.41;100307.65;113333;1190;22529;-64
2021/09/19 05:01:38;;;;;;;13.80;3.20;;;;;;;9.46;85.39;100309.10;113107;1198;22418;-64
2021/09/19 05:04:09;;;;;;;10.00;2.40;;;;;;;9.46;85.45;100309.76;113155;1190;24053;-63
2021/09/19 05:06:41;;;;;;;11.20;2.80;;;;;;;9.45;85.66;100313.86;113109;1193;25051;-64
2021/09/19 05:09:14;;;;;;;8.20;2.40;;;;;;;9.47;85.63;100309.56;113146;1198;22445;-64
2021/09/19 05:11:45;;;;;;;11.50;3.30;;;;;;;9.48;85.78;100308.89;113249;1198;22433;-64
2021/09/19 05:14:17;;;;;;;10.10;3.00;;;;;;;9.49;85.86;100310.34;113057;1198;22433;-64
2021/09/19 05:16:48;;;;;;;11.90;3.00;;;;;;;9.49;85.71;100309.13;113167;1196;22769;-64
2021/09/19 05:19:21;;;;;;;10.30;2.90;;;;;;;9.50;85.95;100312.52;113073;1198;22425;-64
2021/09/19 05:21:52;;;;;;;14.80;3.20;;;;;;;9.50;85.77;100308.29;113086;1198;22444;-64
2021/09/19 05:24:23;;;;;;;11.10;2.90;;;;;;;9.50;85.73;100310.14;113100;1198;25303;-64
2021/09/19 05:26:54;;;;;;;10.80;2.60;;;;;;;9.48;85.73;100305.20;113200;1198;24167;-64
2021/09/19 05:29:25;;;;;;;9.20;2.60;;;;;;;9.48;85.72;100304.02;113273;1198;22433;-65
2021/09/19 05:31:56;;;;;;;16.00;3.50;;;;;;;9.47;85.75;100307.09;113154;1198;22854;-64
2021/09/19 05:34:31;;;;;;;13.00;3.20;;;;;;;9.48;85.69;100305.84;113462;1198;24065;-64
2021/09/19 05:37:02;;;;;;;10.20;2.60;;;;;;;9.50;85.82;100306.55;113056;1192;24005;-64
2021/09/19 05:39:33;;;;;;;10.20;3.20;;;;;;;9.52;85.91;100305.48;113118;1191;26263;-66
2021/09/19 05:42:05;;;;;;;13.20;3.30;;;;;;;9.55;85.77;100309.08;113114;1198;22589;-64
2021/09/19 05:44:38;;;;;;;13.20;3.70;;;;;;;9.57;85.78;100309.52;113141;1192;24384;-65
2021/09/19 05:47:12;;;;;;;17.70;4.40;;;;;;;9.60;85.89;100311.61;113230;1193;24034;-65
2021/09/19 05:49:44;;;;;;;11.60;3.10;;;;;;;9.63;85.75;100318.23;113198;1198;22409;-65
2021/09/19 05:52:14;;;;;;;13.80;3.60;;;;;;;9.66;85.66;100319.92;113304;1193;22771;-65
2021/09/19 05:54:45;;;;;;;9.80;3.00;;;;;;;9.69;85.68;100319.55;113208;1198;22424;-65
2021/09/19 05:57:17;;;;;;;13.80;4.40;;;;;;;9.72;85.77;100321.16;113183;1198;24105;-65
2021/09/19 05:59:47;;;;;;;13.40;4.10;;;;;;;9.75;85.71;100319.52;113133;1193;22460;-65
2021/09/19 06:02:18;;;;;;;12.60;4.00;;;;;;;9.78;85.72;100322.33;113020;1198;22500;-65
2021/09/19 06:04:50;;;;;;;15.50;3.90;;;;;;;9.82;85.90;100322.16;112944;1192;26301;-65
2021/09/19 06:07:21;;;;;;;11.70;3.90;;;;;;;9.86;85.72;100322.10;113872;1198;22622;-66
2021/09/19 06:09:52;;;;;;;15.90;4.20;;;;;;;9.90;85.59;100320.02;113173;1198;22605;-65
2021/09/19 06:12:23;;;;;;;10.10;3.10;;;;;;;9.93;85.49;100316.64;113364;1198;22439;-65
2021/09/19 06:14:54;;;;;;;11.80;3.30;;;;;;;9.95;85.58;100317.10;113204;1198;22435;-65
2021/09/19 06:17:25;;;;;;;12.70;3.60;;;;;;;9.99;85.43;100321.08;113005;1192;24044;-65
2021/09/19 06:19:59;;;;;;;14.10;3.90;;;;;;;10.01;85.44;100319.98;113036;1198;24094;-65
2021/09/19 06:22:30;;;;;;;12.10;4.10;;;;;;;10.04;85.23;100317.45;113199;1198;22496;-64
2021/09/19 06:25:02;;;;;;;12.70;3.60;;;;;;;10.07;85.37;100316.14;113010;1198;22428;-64
2021/09/19 06:27:33;;;;;;;16.40;4.10;;;;;;;10.09;85.09;100319.19;112965;1198;22446;-69
2021/09/19 06:30:04;;;;;;;14.50;4.40;;;;;;;10.12;85.29;100322.07;113068;1198;22438;-64
2021/09/19 06:32:36;;;;;;;12.20;3.90;;;;;;;10.17;85.09;100325.52;113271;1198;25026;-63
2021/09/19 06:35:10;;;;;;;11.30;3.40;;;;;;;10.20;85.03;100327.89;113214;1198;25110;-63
2021/09/19 06:37:41;;;;;;;14.20;4.20;;;;;;;10.24;84.92;100326.13;113081;1193;23913;-64
2021/09/19 06:40:15;;;;;;;12.70;3.90;;;;;;;10.27;85.19;100324.68;113237;1198;22436;-65
2021/09/19 06:42:46;;;;;;;14.00;4.40;;;;;;;10.33;85.20;100328.38;113249;1198;22436;-64
2021/09/19 06:45:18;;;;;;;11.20;3.30;;;;;;;10.39;84.96;100323.11;113202;1190;25079;-63
2021/09/19 06:47:49;;;;;;;16.70;4.00;;;;;;;10.45;84.80;100322.82;113114;1192;26264;-63
2021/09/19 06:50:20;;;;;;;14.30;4.50;;;;;;;10.50;84.59;100324.93;113073;1198;22461;-71
2021/09/19 06:52:51;;;;;;;13.20;4.10;;;;;;;10.56;84.76;100324.17;113722;1198;25145;-70
2021/09/19 06:55:23;;;;;;;13.00;4.70;;;;;;;10.61;84.76;100327.36;113682;1198;22441;-64
2021/09/19 06:57:59;;;;;;;12.00;3.70;;;;;;;10.66;84.47;100326.14;113042;1198;26257;-64
2021/09/19 07:00:32;;;;;;;13.20;3.20;;;;;;;10.69;84.29;100328.23;113269;1198;22418;-63
2021/09/19 07:03:04;;;;;;;11.90;3.30;;;;;;;10.73;84.19;100327.60;113170;1198;25236;-63
2021/09/19 07:05:36;;;;;;;13.50;4.00;;;;;;;10.77;83.92;100323.81;113164;1198;24065;-63
2021/09/19 07:08:08;;;;;;;12.70;4.10;;;;;;;10.81;84.26;100326.79;113252;1198;24234;-63
2021/09/19 07:10:39;;;;;;;15.40;4.80;;;;;;;10.85;84.15;100327.85;113204;1198;25082;-63
2021/09/19 07:13:12;;;;;;;13.10;4.40;;;;;;;10.90;84.18;100327.34;113131;1190;22432;-62
2021/09/19 07:15:43;;;;;;;12.00;3.50;;;;;;;10.95;84.06;100333.40;113123;1198;25098;-64
2021/09/19 07:18:15;;;;;;;13.70;4.00;;;;;;;10.99;83.80;100331.55;113229;1198;22436;-63
2021/09/19 07:20:47;;;;;;;14.60;4.70;;;;;;;11.03;83.92;100338.54;113083;1198;22470;-63
2021/09/19 07:23:18;;;;;;;13.00;4.30;;;;;;;11.06;83.56;100334.63;113209;1198;22623;-61
2021/09/19 07:25:50;;;;;;;15.90;5.30;;;;;;;11.10;83.48;100341.86;113260;1198;24928;-64
2021/09/19 07:28:21;;;;;;;13.60;4.20;;;;;;;11.13;83.24;100336.64;113123;1198;23822;-63
2021/09/19 07:30:57;;;;;;;15.10;4.10;;;;;;;11.16;82.69;100334.81;113314;1190;22531;-63
2021/09/19 07:33:30;;;;;;;11.90;4.10;;;;;;;11.16;82.90;100332.79;113678;1191;22516;-64
2021/09/19 07:36:02;;;;;;;13.50;4.40;;;;;;;11.20;82.88;100334.13;113069;1190;22498;-65
2021/09/19 07:38:34;;;;;;;18.80;4.50;;;;;;;11.25;83.08;100338.33;113234;1198;25110;-63
2021/09/19 07:41:08;;;;;;;10.80;4.10;;;;;;;11.30;82.92;100334.41;113120;1192;271439;-63
2021/09/19 07:43:41;;;;;;;13.40;4.70;;;;;;;11.34;82.46;100339.66;112894;1199;24050;-63
2021/09/19 07:46:16;;;;;;;10.80;3.60;;;;;;;11.36;82.00;100335.38;112991;1193;22499;-62
2021/09/19 07:48:49;;;;;;;11.40;3.60;;;;;;;11.39;81.98;100336.64;112515;1200;24058;-62
2021/09/19 07:51:24;;;;;;;13.00;3.50;;;;;;;11.39;81.87;100335.98;112554;1200;25082;-63
2021/09/19 07:53:57;;;;;;;10.70;3.10;;;;;;;11.45;82.17;100337.77;112666;1193;22547;-63
2021/09/19 07:56:28;;;;;;;14.80;4.00;;;;;;;11.51;81.82;100342.02;112647;1193;24974;-68
2021/09/19 07:58:59;;;;;;;11.10;3.90;;;;;;;11.54;81.51;100340.39;112619;1199;24164;-69
2021/09/19 08:01:30;;;;;;;9.70;2.80;;;;;;;11.60;81.37;100341.10;113686;1200;23538;-69
2021/09/19 08:04:01;;;;;;;12.30;2.90;;;;;;;11.65;81.06;100344.35;113390;1200;22891;-66
2021/09/19 08:06:32;;;;;;;11.50;3.10;;;;;;;11.69;80.76;100341.84;112619;1200;22439;-66
2021/09/19 08:09:04;;;;;;;11.00;3.50;;;;;;;11.74;80.39;100344.32;112882;1199;22494;-66
2021/09/19 08:11:35;;;;;;;10.30;3.30;;;;;;;11.79;80.13;100343.13;112766;1199;24146;-65
2021/09/19 08:14:08;;;;;;;10.90;3.10;;;;;;;11.83;80.39;100343.44;112869;1200;22424;-66
2021/09/19 08:16:41;;;;;;;11.90;2.70;;;;;;;11.88;79.22;100347.08;112905;1199;22595;-67
2021/09/19 08:19:12;;;;;;;9.80;2.60;;;;;;;11.89;79.31;100347.61;112617;1199;24069;-64
2021/09/19 08:21:43;;;;;;;9.10;2.20;;;;;;;11.91;78.67;100352.63;112677;1199;22476;-64
2021/09/19 08:24:15;;;;;;;6.50;2.00;;;;;;;11.95;79.04;100348.51;112585;1193;24133;-64
2021/09/19 08:26:46;;;;;;;7.30;2.30;;;;;;;11.99;77.86;100345.73;116917;1198;23168;-63
2021/09/19 08:29:18;;;;;;;8.40;2.30;;;;;;;12.01;78.50;100343.92;116835;1192;22309;-63
2021/09/19 08:31:49;;;;;;;7.70;1.80;;;;;;;12.07;78.20;100346.60;116457;1199;24385;-64
2021/09/19 08:34:21;;;;;;;7.30;1.60;;;;;;;12.13;77.62;100349.64;112436;1200;22441;-61
2021/09/19 08:36:52;;;;;;;12.80;2.00;;;;;;;12.16;77.07;100353.91;112398;1193;22437;-60
2021/09/19 08:39:26;;;;;;;6.80;1.90;;;;;;;12.21;77.46;100354.14;112561;1199;25274;-60
2021/09/19 08:41:58;;;;;;;9.50;2.50;;;;;;;12.27;77.52;100358.73;112811;1193;25033;-61
2021/09/19 08:44:29;;;;;;;5.90;1.40;;;;;;;12.29;76.13;100362.73;113127;1200;24167;-56
2021/09/19 08:47:01;;;;;;;6.80;1.90;;;;;;;12.23;74.86;100360.27;114670;1200;22593;-60
2021/09/19 08:49:33;;;;;;;7.40;2.00;;;;;;;12.24;76.34;100361.45;113322;1193;22466;-59
2021/09/19 08:52:04;;;;;;;6.40;1.70;;;;;;;12.31;76.42;100359.86;113028;1199;22450;-58
2021/09/19 08:54:35;;;;;;;8.40;2.40;;;;;;;12.38;76.36;100363.99;112751;1193;24167;-59
2021/09/19 08:57:07;;;;;;;5.20;1.40;;;;;;;12.43;75.26;100362.09;112864;1192;22510;-60
2021/09/19 08:59:50;;;;;;;4.40;1.30;;;;;;;12.46;75.67;100359.40;112812;1200;23053;-60
2021/09/19 09:02:22;;;;;;;6.60;1.70;;;;;;;12.49;74.57;100362.00;112988;1199;22445;-61
2021/09/19 09:04:59;;;;;;;7.20;1.80;;;;;;;12.51;75.31;100358.77;113098;1200;22438;-61
2021/09/19 09:07:30;;;;;;;8.40;1.60;;;;;;;12.52;74.93;100359.08;113115;1192;26469;-61
2021/09/19 09:10:01;;;;;;;7.30;1.70;;;;;;;12.55;74.68;100360.10;112778;1200;22703;-61
2021/09/19 09:12:33;;;;;;;5.80;1.50;;;;;;;12.56;74.31;100357.70;112967;1200;25153;-60
2021/09/19 09:15:05;;;;;;;5.80;1.40;;;;;;;12.52;72.74;100357.96;112843;1199;22422;-59
2021/09/19 09:17:39;;;;;;;4.70;1.30;;;;;;;12.45;73.15;100356.85;112873;1200;22441;-64
2021/09/19 09:20:14;;;;;;;9.30;1.40;;;;;;;12.42;72.76;100357.46;113069;1192;24432;-65
2021/09/19 09:22:45;;;;;;;7.30;1.50;;;;;;;12.40;73.04;100351.08;113480;1198;26698;-64
2021/09/19 09:25:18;;;;;;;7.80;1.50;;;;;;;12.44;72.52;100351.28;113142;1198;22435;-64
2021/09/19 09:27:52;;;;;;;5.20;1.30;;;;;;;12.47;72.48;100353.16;113239;1190;22990;-64
2021/09/19 09:30:26;;;;;;;13.70;1.50;;;;;;;12.51;72.20;100352.26;113258;1198;24981;-59
2021/09/19 09:33:01;;;;;;;6.50;1.10;;;;;;;12.55;71.90;100354.13;113075;1198;22531;-61
2021/09/19 09:35:38;;;;;;;4.30;1.20;;;;;;;12.58;71.71;100357.44;113120;1198;22543;-60
2021/09/19 09:38:21;;;;;;;8.50;1.20;;;;;;;12.59;71.45;100356.69;113150;1192;22642;-60
2021/09/19 09:40:57;;;;;;;6.20;1.40;;;;;;;12.63;72.19;100355.97;113133;1198;22436;-60
2021/09/19 09:43:29;;;;;;;6.60;1.30;;;;;;;12.73;72.20;100353.45;113152;1198;22419;-59
2021/09/19 09:46:11;;;;;;;8.50;1.40;;;;;;;12.82;71.78;100350.40;112898;1198;22485;-61
2021/09/19 09:48:42;;;;;;;7.40;1.30;;;;;;;12.91;70.84;100353.76;112912;1198;22427;-62
2021/09/19 09:51:26;;;;;;;7.50;1.30;;;;;;;12.94;71.17;100351.20;113049;1192;22431;-61
2021/09/19 09:54:01;;;;;;;4.70;1.10;;;;;;;13.05;70.83;100354.23;113099;1192;22550;-62
2021/09/19 09:56:33;;;;;;;4.90;1.50;;;;;;;13.15;70.71;100348.29;113117;1198;22473;-65
2021/09/19 09:59:06;;;;;;;6.30;1.60;;;;;;;13.21;70.65;100345.80;113516;1198;22417;-61
2021/09/19 10:01:37;;;;;;;5.30;1.20;;;;;;;13.29;70.40;100348.27;112977;1198;22499;-63
2021/09/19 10:04:08;;;;;;;5.90;1.20;;;;;;;13.36;70.29;100347.41;112983;1198;24045;-61
2021/09/19 10:06:40;;;;;;;6.90;1.20;;;;;;;13.39;69.33;100349.73;113068;1198;24056;-61
2021/09/19 10:09:17;;;;;;;5.30;1.20;;;;;;;13.39;69.28;100349.19;114697;1198;25041;-61
2021/09/19 10:11:49;;;;;;;6.30;1.20;;;;;;;13.41;69.37;100345.73;112950;1198;22445;-59
2021/09/19 10:14:20;;;;;;;6.90;1.20;;;;;;;13.43;68.44;100346.36;113487;1192;24061;-67
2021/09/19 10:16:51;;;;;;;5.30;1.20;;;;;;;13.38;68.18;100342.95;113012;1198;25375;-71
2021/09/19 10:19:25;;;;;;;4.40;1.10;;;;;;;13.34;67.68;100339.50;113728;1198;22456;-74
2021/09/19 10:21:59;;;;;;;5.30;1.10;;;;;;;13.33;68.55;100339.79;113782;1192;24254;-71
2021/09/19 10:24:36;;;;;;;5.80;1.20;;;;;;;13.43;68.79;100343.96;113847;1198;24999;-63
2021/09/19 10:27:22;;;;;;;6.60;1.40;;;;;;;13.46;68.12;100342.77;112844;1192;24062;-70
2021/09/19 10:30:01;;;;;;;8.90;1.50;;;;;;;13.51;68.55;100339.34;113124;1190;22786;-64
2021/09/19 10:32:40;;;;;;;7.30;1.30;;;;;;;13.57;67.91;100338.38;112985;1176;24041;-63
2021/09/19 10:35:30;;;;;;;7.60;1.20;;;;;;;13.55;67.37;100336.17;112965;1198;24331;-63
2021/09/19 10:38:06;;;;;;;6.80;1.30;;;;;;;13.53;66.83;100338.74;113119;1198;24061;-63
2021/09/19 10:40:42;;;;;;;7.60;1.30;;;;;;;13.50;66.98;100337.66;112999;1198;25197;-65
2021/09/19 10:43:24;;;;;;;4.30;1.20;;;;;;;13.53;67.49;100339.37;113018;1192;25040;-65
2021/09/19 10:45:55;;;;;;;5.20;1.00;;;;;;;13.58;66.59;100338.33;113018;1198;25254;-66
2021/09/19 10:48:32;;;;;;;8.50;1.40;;;;;;;13.59;66.86;100346.70;112904;1198;25031;-65
2021/09/19 10:51:05;;;;;;;9.50;1.30;;;;;;;13.64;67.34;100342.48;113069;1192;22461;-64
2021/09/19 10:53:48;;;;;;;5.00;1.10;;;;;;;13.73;67.02;100343.25;113069;1197;22445;-65
2021/09/19 10:56:19;;;;;;;7.90;1.30;;;;;;;13.78;66.77;100345.39;113052;1198;25107;-64
2021/09/19 10:58:52;;;;;;;9.50;1.30;;;;;;;13.83;66.90;100348.79;113272;1191;25370;-65
2021/09/19 11:01:30;;;;;;;6.70;1.20;;;;;;;13.88;66.72;100352.45;113204;1198;25080;-67
2021/09/19 11:04:16;;;;;;;4.80;1.20;;;;;;;13.95;67.00;100347.54;113412;1198;22994;-65
2021/09/19 11:06:50;;;;;;;8.30;1.20;;;;;;;14.04;66.66;100351.02;113085;1192;25677;-68
2021/09/19 11:09:29;;;;;;;9.40;1.60;;;;;;;14.09;66.62;100349.23;113671;1198;24077;-64
2021/09/19 11:12:11;;;;;;;6.90;1.60;;;;;;;14.17;66.55;100346.02;114305;1198;26269;-64
2021/09/19 11:14:59;;;;;;;5.70;1.30;;;;;;;14.21;66.06;100346.85;113114;1198;22458;-63
2021/09/19 11:17:33;;;;;;;4.90;1.10;;;;;;;14.23;65.35;100346.60;113025;1198;22567;-66
2021/09/19 11:20:24;;;;;;;7.20;1.30;;;;;;;14.25;65.66;100341.71;113049;1192;23772;-64
2021/09/19 11:22:58;;;;;;;10.20;1.60;;;;;;;14.30;65.40;100344.83;113476;1192;287415;-65
2021/09/19 11:25:30;;;;;;;7.60;1.60;;;;;;;14.33;65.58;100339.85;113216;1192;25030;-69
2021/09/19 11:28:01;;;;;;;10.10;1.40;;;;;;;14.39;65.59;100340.30;112990;1198;22441;-64
2021/09/19 11:30:33;;;;;;;4.60;1.10;;;;;;;14.41;64.76;100338.05;113290;1198;25113;-65
2021/09/19 11:33:12;;;;;;;4.20;1.20;;;;;;;14.32;64.38;100341.21;113207;1197;22422;-64
2021/09/19 11:35:44;;;;;;;6.10;1.40;;;;;;;14.27;64.76;100339.53;112967;1198;22440;-63
2021/09/19 11:38:21;;;;;;;8.00;1.20;;;;;;;14.24;64.33;100339.36;112979;1198;25134;-64